• Join FlightAware (Why Join?)
  • Login
  • US Flag 
11:49AM EDT


 

Airport Tracker/Info


-or-


 

Live Flight TrackerFlight Track Log ✈ N82008 ✈ 28-Apr-2012 ✈ KDUA - KPWA

Flight Track Log - Related Links

Times and Time Zones

All times are in EDT time to prevent confusion due to time zone crossing. See the N82008 flight status page for this flight to view local times or setup timezone preferences in your user account.

Time Position Orientation Groundspeed Altitude Reporting Facility
EDT Latitude Longitude Course Direction KTS MPH feet Rate Location/Type
09:03AM 33.9837 -96.4264 329° Northwest  Level FlightAware Approximate
09:06AM 34.1369 -96.5378 344° North 140 161 4,700  Level Fort Worth Center
09:07AM 34.1578 -96.5450 336° Northwest 119 137 5,200 540 Climbing Fort Worth Center
09:08AM 34.1767 -96.5550 332° Northwest 93 107 5,800 480 Climbing Fort Worth Center
09:09AM 34.1956 -96.5672 319° Northwest 75 86 6,200 360 Climbing Fort Worth Center
09:10AM 34.2122 -96.5847 320° Northwest 75 86 6,600 300 Climbing Fort Worth Center
09:11AM 34.2292 -96.6022 323° Northwest 80 92 6,900 300 Climbing Fort Worth Center
09:12AM 34.2481 -96.6194 325° Northwest 80 92 7,300 360 Climbing Fort Worth Center
09:13AM 34.2689 -96.6369 319° Northwest 80 92 7,700 300 Climbing Fort Worth Center
09:14AM 34.2881 -96.6569 313° West 80 92 8,000 120 Climbing Fort Worth Center
09:15AM 34.3131 -96.6894 329° Northwest 98 113 8,000  Level Fort Worth Center
09:16AM 34.3508 -96.7167 327° Northwest 131 151 8,000  Level Fort Worth Center
09:17AM 34.3864 -96.7442 325° Northwest 149 171 8,000  Level Fort Worth Center
09:18AM 34.4222 -96.7742 331° Northwest 155 178 8,000  Level Fort Worth Center
09:19AM 34.4514 -96.7939 328° Northwest 150 173 8,000  Level Fort Worth Center
09:20AM 34.4911 -96.8239 325° Northwest 150 173 8,000  Level Fort Worth Center
09:21AM 34.5269 -96.8539 326° Northwest 150 173 8,000  Level Fort Worth Center
09:22AM 34.5603 -96.8814 329° Northwest 150 173 8,000  Level Fort Worth Center
09:23AM 34.5939 -96.9064 330° Northwest 150 173 8,000  Level Fort Worth Center
09:24AM 34.6294 -96.9314 327° Northwest 150 173 8,000  Level Fort Worth Center
09:25AM 34.6650 -96.9592 327° Northwest 150 173 8,100 -120 Climbing Fort Worth Center
09:26AM 34.7025 -96.9892 328° Northwest 150 173 7,800 -300 Descending Fort Worth Center
09:27AM 34.7422 -97.0194 328° Northwest 150 173 7,500 -300 Descending Fort Worth Center
09:28AM 34.7717 -97.0419 326° Northwest 161 185 7,300 -300 Descending Fort Worth Center
09:29AM 34.8114 -97.0747 327° Northwest 160 184 7,000 -180 Descending Fort Worth Center
09:35AM 35.0308 -97.2486 328° Northwest 151 174 6,100 -180 Descending Fort Worth Center
09:36AM 35.0642 -97.2739 327° Northwest 150 173 6,100  Level Fort Worth Center
09:37AM 35.0997 -97.3019 327° Northwest 150 173 6,100  Level Fort Worth Center
09:38AM 35.1372 -97.3322 325° Northwest 150 173 6,100  Level Fort Worth Center
09:39AM 35.1706 -97.3603 324° Northwest 150 173 6,100  Level Fort Worth Center
09:41AM 35.2081 -97.3933 328° Northwest 147 169 6,100  Level Fort Worth Center
09:42AM 35.2478 -97.4236 328° Northwest 152 175 6,100  Level Fort Worth Center
09:43AM 35.2811 -97.4492 323° Northwest 154 177 6,100  Level Fort Worth Center
09:44AM 35.3144 -97.4797 338° Northwest 156 180 6,100  Level Fort Worth Center
09:45AM 35.3561 -97.5000 344° North 172 198 6,100 -180 Level Fort Worth Center
09:46AM 35.4000 -97.5156 349° North 191 220 5,800 -360 Descending Fort Worth Center
09:46AM 35.4436 -97.5258 352° North 174 200 5,500 -420 Descending Fort Worth Center
09:47AM 35.4875 -97.5333 352° North 158 182 5,100 -480 Descending Fort Worth Center
09:48AM 35.5314 -97.5411 349° North 154 177 4,600 -540 Descending Fort Worth Center
09:49AM 35.5731 -97.5514 347° North 150 173 4,100 -300 Descending Fort Worth Center
09:50AM 35.6106 -97.5617 348° North 141 162 4,100  Level Fort Worth Center
09:51AM 35.6500 -97.5719 327° Northwest 148 170 4,100 -180 Level Fort Worth Center
09:52AM 35.6814 -97.5975 289° West 147 169 3,800 -480 Descending Fort Worth Center
09:54AM 35.6958 -97.6486 184° South 141 162 3,100 -540 Descending Fort Worth Center
09:55AM 35.6667 -97.6511 169° South 127 146 2,800 -420 Descending Fort Worth Center
09:56AM 35.6333 -97.6433 189° South 120 138 2,300 -360 Descending Fort Worth Center
09:57AM 35.6083 -97.6483 185° South 89 102 2,100 -60 Descending Fort Worth Center
09:58AM 35.5853 -97.6508 175° South 86 99 2,200 -120 Climbing Fort Worth Center
09:59AM 35.5603 -97.6483 175° South 93 107 1,900 -300 Descending Fort Worth Center